Data for 10/20/2017

Time Sea-Level Adjusted Pressure Absolute Pressure Temperature Relative Humidity Dew Point   
(mb) (inHg) (mb) (inHg) (C) (F) (%) (C) (F)
00:05 1005 29.68 834 24.63 13.7 56.7 14 -13.1 8.4
00:10 1005 29.68 834 24.63 14.6 58.3 13 -13.5 7.7
00:15 1005 29.68 834 24.63 15.2 59.3 15 -11.4 11.4
00:20 1005 29.68 834 24.63 14.1 57.3 14 -13.2 8.2
00:25 1005 29.68 834 24.63 15 58.9 14 -12.5 9.5
00:30 1005 29.68 834 24.63 14.7 58.4 14 -12.6 9.3
00:35 1005 29.68 834 24.63 15 59 14 -12.4 9.7
00:40 1005 29.68 834 24.63 14.1 57.4 16 -10.9 12.3
00:45 1005 29.68 834 24.63 14 57.2 14 -12.8 9
00:50 1005 29.68 834 24.63 14.6 58.3 14 -12.3 9.9
00:55 1005 29.68 834 24.63 14.2 57.6 15 -11.8 10.7
01:00 1005 29.68 834 24.63 13.9 56.9 15 -12.4 9.7
01:05 1005 29.68 834 24.63 13.9 57.1 16 -11.5 11.3
01:10 1004 29.65 834 24.63 13.4 56 16 -11.8 10.8
01:15 1004 29.65 834 24.63 13.4 56.1 16 -11.6 11.1
01:20 1004 29.65 833 24.6 12.9 55.3 18 -10.6 13
01:25 1004 29.65 833 24.6 12.5 54.5 18 -11.3 11.7
01:30 1004 29.65 833 24.6 13.1 55.5 17 -11.2 11.8
01:35 1004 29.65 833 24.6 12.9 55.3 18 -10.7 12.7
01:40 1004 29.65 833 24.6 12.7 54.9 18 -10.9 12.3
01:45 1004 29.65 833 24.6 12.9 55.3 18 -11.2 11.9
01:50 1004 29.65 833 24.6 13.8 56.8 15 -12.4 9.6
01:55 1004 29.65 833 24.6 14.2 57.5 15 -11.9 10.6
02:00 1004 29.65 833 24.6 14 57.2 16 -11.7 11
02:05 1004 29.65 833 24.6 13.8 56.8 15 -12.1 10.2
02:10 1004 29.65 833 24.6 13.8 56.9 16 -11.7 10.9
02:15 1003 29.62 833 24.6 13.6 56.5 16 -11.6 11.1
02:20 1003 29.62 833 24.6 13.5 56.4 16 -11.8 10.8
02:25 1003 29.62 832 24.57 14.7 58.4 14 -12.7 9.1
02:30 1003 29.62 832 24.57 16.2 61.2 13 -11.8 10.7
02:35 1003 29.62 832 24.57 16.6 61.8 14 -11 12.2
02:40 1003 29.62 832 24.57 16.6 61.8 13 -12.1 10.2
02:45 1003 29.62 832 24.57 16.8 62.2 13 -11.7 10.9
02:50 1003 29.62 832 24.57 16.3 61.3 14 -11.3 11.6
02:55 1003 29.62 832 24.57 16.3 61.4 13 -11.8 10.7
03:00 1003 29.62 832 24.57 17.2 62.9 13 -11.8 10.7
03:05 1002 29.59 832 24.57 17.3 63.2 13 -11.8 10.7
03:10 1002 29.59 832 24.57 17.4 63.3 13 -11.5 11.3
03:15 1002 29.59 832 24.57 17.7 63.8 12 -11.9 10.6
03:20 1002 29.59 832 24.57 17.3 63.2 12 -11.9 10.5
03:25 1002 29.59 832 24.57 17.7 63.8 12 -12.1 10.3
03:30 1002 29.59 832 24.57 17.7 63.9 12 -11.7 10.9
03:35 1002 29.59 831 24.54 17.5 63.5 13 -11.5 11.3
03:40 1002 29.59 831 24.54 17 62.6 13 -11.2 11.8
03:45 1002 29.59 831 24.54 16.8 62.3 13 -12.1 10.2
03:50 1002 29.59 831 24.54 17.1 62.7 13 -11.8 10.8
03:55 1002 29.59 831 24.54 17.2 62.9 13 -11.5 11.4
04:00 1002 29.59 831 24.54 17.1 62.8 13 -11.6 11.2
04:05 1002 29.59 831 24.54 17 62.7 13 -11.7 11
04:10 1002 29.59 831 24.54 17 62.5 13 -11.6 11.1
04:15 1002 29.59 831 24.54 16.8 62.2 14 -11.2 11.8
04:20 1002 29.59 831 24.54 16.5 61.7 14 -11.3 11.6
04:25 1002 29.59 831 24.54 16.7 62 14 -11.1 12
04:30 1002 29.59 831 24.54 16.8 62.3 14 -11 12.2
04:35 1002 29.59 831 24.54 17 62.7 14 -10.8 12.6
04:40 1002 29.59 831 24.54 17 62.6 14 -10.3 13.5
04:45 1002 29.59 831 24.54 16.6 61.9 15 -10.2 13.6
04:50 1002 29.59 831 24.54 16.4 61.5 15 -10.1 13.9
04:55 1002 29.59 831 24.54 16.3 61.3 16 -9.9 14.1
05:00 1002 29.59 831 24.54 16.2 61.2 15 -10.4 13.3
05:05 1002 29.59 831 24.54 16.5 61.7 15 -10.1 13.7
05:10 1002 29.59 831 24.54 16.1 61 16 -9.6 14.8
05:15 1002 29.59 831 24.54 15.8 60.4 17 -8.9 15.9
05:20 1002 29.59 831 24.54 15.2 59.4 17 -9.4 15.1
05:25 1002 29.59 831 24.54 15.2 59.3 18 -9.1 15.5
05:30 1002 29.59 831 24.54 14.6 58.3 19 -8.8 16.1
05:35 1002 29.59 831 24.54 14.5 58 20 -8.5 16.7
05:40 1002 29.59 831 24.54 14.5 58 20 -8.5 16.8
05:45 1002 29.59 831 24.54 14.8 58.7 19 -8.7 16.3
05:50 1001 29.56 831 24.54 15.3 59.5 19 -8.5 16.7
05:55 1001 29.56 831 24.54 15.3 59.5 19 -8 17.6
06:00 1001 29.56 831 24.54 15.3 59.5 19 -8 17.6
06:05 1001 29.56 830 24.51 14.7 58.5 20 -7.7 18.2
06:10 1001 29.56 830 24.51 14.9 58.8 21 -7.3 18.8
06:15 1001 29.56 830 24.51 14.8 58.6 21 -7.5 18.5
06:20 1001 29.56 830 24.51 14.8 58.7 22 -6.8 19.7
06:25 1001 29.56 830 24.51 14.5 58 22 -7.2 19.1
06:30 1001 29.56 830 24.51 14.4 58 23 -6.5 20.3
06:35 1001 29.56 830 24.51 14.8 58.6 23 -6 21.2
06:40 1001 29.56 830 24.51 15.1 59.2 23 -5.7 21.7
06:45 1001 29.56 830 24.51 14.8 58.6 24 -5.5 22.2
06:50 1001 29.56 830 24.51 14.8 58.6 24 -5.3 22.4
06:55 1001 29.56 830 24.51 15.1 59.3 24 -5.1 22.9
07:00 1001 29.56 830 24.51 15 59.1 24 -5.1 22.8
07:05 1001 29.56 830 24.51 14.7 58.5 25 -5.3 22.5
07:10 1000 29.53 830 24.51 14.3 57.8 26 -5 23.1
07:15 1000 29.53 830 24.51 13.8 56.9 26 -5.3 22.4
07:20 1000 29.53 830 24.51 14.2 57.6 26 -5 23
07:25 1000 29.53 830 24.51 13.9 57 27 -4.9 23.3
07:30 1000 29.53 829 24.48 13.6 56.6 28 -4.7 23.6
07:35 1000 29.53 829 24.48 13.2 55.7 29 -4.5 24
07:40 1000 29.53 829 24.48 12.7 54.9 30 -4.5 23.9
07:45 1000 29.53 829 24.48 12.8 55.1 29 -4.6 23.7
07:50 1000 29.53 829 24.48 13 55.4 29 -4.4 24.1
07:55 1000 29.53 829 24.48 13.1 55.6 30 -4 24.8
08:00 1000 29.53 829 24.48 12.9 55.3 30 -4.2 24.4
08:05 1000 29.53 829 24.48 13.2 55.7 30 -3.9 25
08:10 1000 29.53 829 24.48 13.1 55.5 30 -3.9 25
08:15 1000 29.53 829 24.48 13 55.5 31 -3.9 25.1
08:20 1000 29.53 829 24.48 13 55.4 31 -3.5 25.7
08:25 1000 29.53 829 24.48 12.8 55 33 -3.1 26.4
08:30 1000 29.53 829 24.48 12.6 54.7 33 -3.4 25.9
08:35 1000 29.53 829 24.48 12.8 55 33 -3.2 26.3
08:40 1000 29.53 829 24.48 12.9 55.2 32 -3.3 26
08:45 999 29.5 829 24.48 13.4 56.1 31 -3.1 26.4
08:50 999 29.5 829 24.48 14.1 57.4 29 -3.5 25.7
08:55 999 29.5 829 24.48 14.9 58.9 29 -2.9 26.7
09:00 999 29.5 829 24.48 14.5 58.2 35 -0.8 30.6
09:05 999 29.5 829 24.48 14.4 57.9 31 -2.7 27.2
09:10 999 29.5 828 24.45 15.1 59.2 28 -3.1 26.4
09:15 999 29.5 828 24.45 16.2 61.2 26 -2.9 26.7
09:20 999 29.5 828 24.45 16.5 61.7 29 -1.4 29.5
09:25 999 29.5 828 24.45 16.3 61.3 26 -3 26.5
09:30 999 29.5 828 24.45 17.6 63.6 23 -3.6 25.5
09:35 999 29.5 828 24.45 18.4 65.1 23 -3 26.6
09:40 999 29.5 828 24.45 18.6 65.4 21 -3.9 25
09:45 999 29.5 828 24.45 18.3 65 21 -4.5 23.9
09:50 999 29.5 828 24.45 18.8 65.9 23 -2.6 27.3
09:55 999 29.5 828 24.45 18.3 64.9 21 -4.4 24.2
10:00 999 29.5 828 24.45 17.6 63.7 22 -4.2 24.4
10:05 999 29.5 828 24.45 17.2 63 22 -4.4 24.1
10:10 999 29.5 828 24.45 17.1 62.8 23 -4.2 24.4
10:15 999 29.5 828 24.45 17.1 62.7 23 -4.2 24.5
10:20 999 29.5 828 24.45 17 62.6 23 -4.1 24.7
10:25 999 29.5 828 24.45 16.9 62.4 24 -3.9 24.9
10:30 999 29.5 828 24.45 16.8 62.3 23 -4.1 24.7
10:35 999 29.5 828 24.45 17 62.7 24 -3.6 25.5
10:40 999 29.5 828 24.45 16.9 62.5 24 -3.6 25.6
10:45 998 29.47 828 24.45 16.6 61.9 24 -3.8 25.2
10:50 999 29.5 828 24.45 16.2 61.2 26 -3.4 25.9
10:55 999 29.5 828 24.45 16.2 61.2 26 -3.2 26.2
11:00 999 29.5 828 24.45 15.7 60.3 28 -2.8 26.9
11:05 999 29.5 828 24.45 15.4 59.7 28 -2.9 26.8
11:10 999 29.5 828 24.45 15.7 60.2 28 -2.9 26.9
11:15 999 29.5 828 24.45 15.6 60 27 -3.1 26.5
11:20 999 29.5 828 24.45 15.6 60 29 -2.5 27.5
11:25 999 29.5 828 24.45 15.6 60 28 -2.8 26.9
11:30 999 29.5 828 24.45 15.6 60.1 28 -2.8 26.9
11:35 999 29.5 828 24.45 15.5 59.9 28 -2.7 27.2
11:40 999 29.5 828 24.45 15.4 59.7 29 -2.5 27.5
11:45 999 29.5 828 24.45 15 59 28 -3.2 26.2
11:50 999 29.5 828 24.45 14.9 58.8 28 -3.3 26.1
11:55 999 29.5 828 24.45 15.3 59.5 28 -3.1 26.5
12:00 999 29.5 828 24.45 15.8 60.4 27 -3.3 26
12:05 999 29.5 828 24.45 15.6 60 28 -3 26.6
12:10 999 29.5 828 24.45 15.5 59.9 27 -3.3 26.1
12:15 999 29.5 828 24.45 15.5 60 27 -3.5 25.7
12:20 999 29.5 828 24.45 15.8 60.4 27 -3.3 26.1
12:25 999 29.5 828 24.45 16.2 61.2 26 -3.2 26.2
12:30 999 29.5 828 24.45 16 60.8 27 -3.1 26.5
12:35 999 29.5 828 24.45 15.7 60.2 26 -3.7 25.3
12:40 998 29.47 828 24.45 15.7 60.3 26 -3.8 25.1
12:45 998 29.47 828 24.45 15.7 60.2 27 -3.4 26
12:50 998 29.47 828 24.45 15.6 60 26 -3.6 25.6
12:55 998 29.47 828 24.45 15.5 60 26 -3.6 25.5
13:00 998 29.47 827 24.42 15.1 59.3 28 -3.4 25.9
13:05 998 29.47 827 24.42 15.4 59.8 27 -3.5 25.6
13:10 998 29.47 827 24.42 15.3 59.5 26 -3.8 25.1
13:15 998 29.47 828 24.45 15.3 59.6 26 -4 24.8
13:20 999 29.5 828 24.45 15.4 59.8 26 -4 24.9
13:25 999 29.5 828 24.45 15.3 59.6 26 -4.2 24.5
13:30 999 29.5 828 24.45 15.4 59.7 26 -3.9 24.9
13:35 999 29.5 828 24.45 15.3 59.6 26 -4.1 24.6
13:40 1000 29.53 829 24.48 15.4 59.7 30 -2.2 28
13:45 1000 29.53 829 24.48 13.9 57 34 -1.7 28.9
13:50 1000 29.53 829 24.48 12.3 54.1 36 -2.2 28.1
13:55 1000 29.53 829 24.48 11.9 53.5 39 -1.4 29.5
14:00 1001 29.56 830 24.51 11.4 52.6 41 -1.3 29.6
14:05 1001 29.56 830 24.51 10.6 51.2 44 -1.2 29.8
14:10 1001 29.56 830 24.51 9.6 49.3 45 -1.6 29.1
14:15 1001 29.56 831 24.54 9.1 48.4 48 -1.2 29.9
14:20 1002 29.59 831 24.54 8.7 47.7 50 -1 30.2
14:25 1002 29.59 831 24.54 8.3 46.9 51 -1.2 29.8
14:30 1003 29.62 832 24.57 7.8 46 55 -0.7 30.7
14:35 1003 29.62 832 24.57 7.1 44.8 63 0.5 32.9
14:40 1003 29.62 832 24.57 6.5 43.7 65 0.4 32.7
14:45 1004 29.65 833 24.6 5.8 42.4 69 0.5 33
14:50 1005 29.68 834 24.63 5.1 41.2 72 0.5 32.8
14:55 1005 29.68 834 24.63 4.2 39.5 78 0.7 33.2
15:00 1006 29.71 835 24.66 3.8 38.9 77 0.2 32.4
15:05 1006 29.71 835 24.66 3.3 38 81 0.3 32.6
15:10 1006 29.71 835 24.66 3.1 37.6 83 0.5 32.9
15:15 1006 29.71 835 24.66 2.7 36.8 85 0.4 32.7
15:20 1006 29.71 836 24.69 2.4 36.3 86 0.2 32.4
15:25 1007 29.74 836 24.69 2 35.6 86 -0 32
15:30 1007 29.74 836 24.69 1.6 34.8 88 -0.3 31.5
15:35 1007 29.74 836 24.69 1.2 34.1 89 -0.4 31.2
15:40 1007 29.74 836 24.69 1.1 33.9 89 -0.5 31.2
15:45 1007 29.74 836 24.69 1 33.8 90 -0.5 31.1
15:50 1007 29.74 836 24.69 1 33.7 90 -0.5 31.1
15:55 1007 29.74 837 24.72 1 33.8 90 -0.5 31.1
16:00 1008 29.77 837 24.72 1 33.8 90 -0.4 31.2
16:05 1008 29.77 837 24.72 1 33.8 90 -0.4 31.3
16:10 1008 29.77 837 24.72 1.1 34 90 -0.4 31.3
16:15 1008 29.77 837 24.72 1.1 34 90 -0.3 31.4
16:20 1008 29.77 837 24.72 1.2 34.2 89 -0.3 31.4
16:25 1008 29.77 837 24.72 1.1 34 89 -0.4 31.3
16:30 1008 29.77 837 24.72 1.1 34 90 -0.4 31.3
16:35 1008 29.77 837 24.72 1 33.8 90 -0.5 31.2
16:40 1008 29.77 837 24.72 1.2 34.1 89 -0.5 31.1
16:45 1008 29.77 837 24.72 1.4 34.5 86 -0.7 30.7
16:50 1008 29.77 837 24.72 1.5 34.7 86 -0.7 30.8
16:55 1008 29.77 837 24.72 1.7 35 84 -0.7 30.7
17:00 1008 29.77 837 24.72 1.8 35.2 84 -0.7 30.7
17:05 1008 29.77 837 24.72 1.8 35.3 83 -0.8 30.6
17:10 1008 29.77 837 24.72 2.1 35.8 77 -1.5 29.2
17:15 1008 29.77 837 24.72 2.5 36.5 75 -1.4 29.4
17:20 1008 29.77 838 24.75 2.7 36.9 73 -1.7 29
17:25 1008 29.77 838 24.75 2.9 37.1 71 -1.9 28.6
17:30 1008 29.77 838 24.75 2.9 37.3 71 -1.9 28.6
17:35 1008 29.77 838 24.75 3 37.4 70 -1.9 28.5
17:40 1009 29.8 838 24.75 3.1 37.5 69 -2 28.3
17:45 1009 29.8 838 24.75 3.2 37.7 65 -2.7 27.1
17:50 1009 29.8 838 24.75 3.5 38.4 65 -2.4 27.7
17:55 1009 29.8 838 24.75 3.6 38.6 66 -2.1 28.2
18:00 1009 29.8 838 24.75 3.4 38.1 69 -1.8 28.7
18:05 1008 29.77 838 24.75 3.1 37.6 70 -1.8 28.7
18:10 1008 29.77 838 24.75 2.9 37.3 72 -1.7 28.9
18:15 1008 29.77 838 24.75 2.9 37.2 72 -1.8 28.8
18:20 1008 29.77 838 24.75 2.8 37.1 73 -1.6 29.1
18:25 1009 29.8 838 24.75 2.8 37.1 72 -1.7 28.9
18:30 1009 29.8 838 24.75 2.9 37.2 71 -1.8 28.8
18:35 1009 29.8 838 24.75 2.9 37.2 72 -1.7 29
18:40 1009 29.8 838 24.75 2.9 37.3 72 -1.7 29
18:45 1009 29.8 838 24.75 2.9 37.3 72 -1.6 29.2
18:50 1009 29.8 838 24.75 3 37.3 72 -1.6 29.1
18:55 1009 29.8 838 24.75 3 37.4 71 -1.7 28.9
19:00 1009 29.8 838 24.75 3 37.5 72 -1.5 29.3
19:05 1009 29.8 838 24.75 3 37.5 72 -1.6 29.2
19:10 1009 29.8 838 24.75 3 37.5 72 -1.5 29.2
19:15 1009 29.8 838 24.75 3 37.4 72 -1.5 29.2
19:20 1009 29.8 838 24.75 3 37.4 71 -1.7 29
19:25 1009 29.8 838 24.75 3.1 37.5 71 -1.6 29.1
19:30 1009 29.8 838 24.75 3.1 37.6 70 -1.8 28.7
19:35 1009 29.8 838 24.75 3.1 37.6 70 -1.8 28.8
19:40 1009 29.8 839 24.78 3.1 37.5 71 -1.7 29
19:45 1009 29.8 839 24.78 3 37.4 70 -1.9 28.7
19:50 1009 29.8 839 24.78 3 37.4 69 -2.1 28.2
19:55 1009 29.8 839 24.78 3.1 37.5 69 -2 28.4
20:00 1010 29.83 839 24.78 3.1 37.5 68 -2.2 28
20:05 1010 29.83 839 24.78 3.1 37.5 69 -2.1 28.1
20:10 1010 29.83 839 24.78 2.9 37.3 67 -2.5 27.5
20:15 1010 29.83 839 24.78 3 37.3 67 -2.7 27.2
20:20 1010 29.83 839 24.78 3 37.4 66 -2.8 26.9
20:25 1010 29.83 839 24.78 3.1 37.5 65 -2.9 26.8
20:30 1010 29.83 839 24.78 3 37.5 66 -2.7 27.1
20:35 1010 29.83 839 24.78 3.1 37.5 66 -2.7 27.1
20:40 1010 29.83 839 24.78 3 37.4 66 -2.6 27.2
20:45 1010 29.83 839 24.78 2.9 37.3 67 -2.7 27.2
20:50 1010 29.83 839 24.78 2.9 37.2 67 -2.7 27.2
20:55 1010 29.83 839 24.78 2.9 37.2 67 -2.7 27.2
21:00 1010 29.83 839 24.78 2.9 37.2 66 -2.9 26.8
21:05 1010 29.83 839 24.78 3 37.4 66 -2.7 27.2
21:10 1010 29.83 839 24.78 2.9 37.3 66 -2.8 27
21:15 1010 29.83 839 24.78 3 37.4 65 -2.9 26.9
21:20 1010 29.83 840 24.81 2.9 37.3 66 -2.7 27.2
21:25 1010 29.83 840 24.81 2.9 37.3 66 -2.9 26.8
21:30 1011 29.85 840 24.81 2.9 37.3 65 -3 26.5
21:35 1011 29.85 840 24.81 3 37.3 65 -3 26.6
21:40 1011 29.85 840 24.81 3 37.3 66 -2.8 26.9
21:45 1011 29.85 840 24.81 2.9 37.1 66 -2.9 26.7
21:50 1011 29.85 840 24.81 2.8 37 65 -3.1 26.4
21:55 1011 29.85 840 24.81 2.8 37 65 -3.2 26.2
22:00 1011 29.85 840 24.81 2.7 36.9 66 -2.9 26.8
22:05 1011 29.85 840 24.81 2.7 36.9 66 -3 26.6
22:10 1011 29.85 840 24.81 2.6 36.7 67 -2.9 26.8
22:15 1011 29.85 840 24.81 2.5 36.5 67 -2.9 26.8
22:20 1011 29.85 840 24.81 2.4 36.4 66 -3.3 26.1
22:25 1011 29.85 840 24.81 2.3 36.2 65 -3.6 25.5
22:30 1011 29.85 840 24.81 2.4 36.3 63 -3.9 25
22:35 1011 29.85 841 24.83 2.4 36.3 64 -3.8 25.1
22:40 1011 29.85 841 24.83 2.3 36.1 63 -3.9 24.9
22:45 1012 29.88 841 24.83 2.2 36 65 -3.7 25.4
22:50 1012 29.88 841 24.83 2.2 35.9 65 -3.8 25.2
22:55 1012 29.88 841 24.83 2.1 35.7 65 -3.9 24.9
23:00 1012 29.88 841 24.83 2 35.7 64 -4 24.8
23:05 1012 29.88 841 24.83 1.9 35.5 67 -3.6 25.4
23:10 1012 29.88 841 24.83 1.8 35.3 67 -3.8 25.2
23:15 1012 29.88 841 24.83 1.8 35.2 65 -4.1 24.6
23:20 1012 29.88 841 24.83 1.7 35 65 -4.2 24.5
23:25 1012 29.88 842 24.86 1.7 35.1 66 -4.1 24.7
23:30 1012 29.88 842 24.86 1.8 35.2 61 -4.9 23.2
23:35 1012 29.88 842 24.86 1.9 35.4 61 -4.9 23.1
23:40 1012 29.88 842 24.86 2 35.5 61 -4.7 23.5
23:45 1013 29.91 842 24.86 1.9 35.4 61 -4.8 23.3
23:50 1013 29.91 842 24.86 1.8 35.3 62 -4.8 23.4
23:55 1013 29.91 842 24.86 1.7 35.1 59 -5.4 22.3
24:00 1013 29.91 842 24.86 1.8 35.2 59 -5.5 22.1